Time;durP1;ratioP1;P1;durP2;ratioP2;P2;SDS_P1;SDS_P2;PMS_P1;PMS_P2;Temp;Humidity;BMP_temperature;BMP_pressure;BME280_temperature;BME280_humidity;BME280_pressure;Samples;Min_cycle;Max_cycle;Signal;HPM_P1;HPM_P2
2024/03/29 01:44:33;;;;;;;4.93;1.13;;;;;;;7.05;100.00;69174.75;5067336;28;20403;-52
2024/03/29 01:47:03;;;;;;;5.00;1.10;;;;;;;7.06;100.00;69175.34;5066519;28;20047;-52
2024/03/29 01:49:31;;;;;;;4.15;1.02;;;;;;;7.02;100.00;69166.09;5067496;28;20048;-49
2024/03/29 01:51:58;;;;;;;3.78;0.75;;;;;;;7.06;100.00;69178.53;5065254;28;20055;-51
2024/03/29 01:54:25;;;;;;;3.20;0.93;;;;;;;7.06;100.00;69172.75;5066607;28;20614;-52
2024/03/29 01:56:55;;;;;;;3.70;1.05;;;;;;;7.06;100.00;69175.34;5066883;28;20040;-55
2024/03/29 01:59:23;;;;;;;4.03;0.90;;;;;;;7.04;100.00;69176.19;5084206;28;20476;-54
2024/03/29 02:01:50;;;;;;;5.80;1.10;;;;;;;7.04;100.00;69173.59;5066717;28;20075;-50
2024/03/29 02:04:18;;;;;;;4.43;1.10;;;;;;;7.01;100.00;69169.50;5066745;28;20047;-51
2024/03/29 02:06:45;;;;;;;5.13;1.10;;;;;;;7.01;100.00;69172.09;5066118;28;20499;-49
2024/03/29 02:09:12;;;;;;;4.25;1.13;;;;;;;7.00;100.00;69168.38;5082724;28;20036;-50
2024/03/29 02:11:40;;;;;;;6.72;1.70;;;;;;;6.98;100.00;69169.22;5069586;28;20075;-52
2024/03/29 02:14:08;;;;;;;7.13;1.00;;;;;;;6.98;100.00;69166.63;5066683;28;20060;-51
2024/03/29 02:16:37;;;;;;;5.13;1.15;;;;;;;7.01;100.00;69169.50;5067044;28;20047;-48
2024/03/29 02:19:04;;;;;;;5.60;1.27;;;;;;;7.00;100.00;69168.94;5082998;28;20040;-52
2024/03/29 02:21:32;;;;;;;6.13;1.90;;;;;;;7.01;100.00;69166.91;5082955;28;20135;-54
2024/03/29 02:24:07;;;;;;;3.08;1.20;;;;;;;6.99;100.00;69165.16;5049114;28;20044;-51
2024/03/29 02:26:36;;;;;;;5.57;1.38;;;;;;;7.00;100.00;69174.13;5066885;28;20044;-49
2024/03/29 02:29:03;;;;;;;7.43;1.35;;;;;;;7.01;100.00;69172.09;5082794;28;20059;-48
2024/03/29 02:31:30;;;;;;;2.67;1.13;;;;;;;7.02;100.00;69170.69;5066722;28;20848;-50
2024/03/29 02:33:57;;;;;;;5.30;0.95;;;;;;;7.07;100.00;69173.91;5066104;28;20037;-49
2024/03/29 02:36:24;;;;;;;2.15;0.70;;;;;;;7.06;100.00;69175.34;5083299;28;20052;-49
2024/03/29 02:38:52;;;;;;;3.38;1.13;;;;;;;7.11;100.00;69181.16;5068847;28;20392;-53
2024/03/29 02:41:20;;;;;;;4.25;1.00;;;;;;;7.14;100.00;69184.66;5083441;28;20040;-54
2024/03/29 02:43:47;;;;;;;5.97;1.08;;;;;;;7.13;100.00;69178.31;5068448;28;20159;-53
2024/03/29 02:46:15;;;;;;;3.97;0.80;;;;;;;7.17;100.00;69188.16;5069250;28;20048;-49
2024/03/29 02:48:41;;;;;;;3.03;0.95;;;;;;;7.21;100.00;69190.22;5086252;28;20352;-50
2024/03/29 02:51:08;;;;;;;3.15;0.70;;;;;;;7.27;100.00;69202.38;5084904;28;20048;-51
2024/03/29 02:53:34;;;;;;;5.63;1.25;;;;;;;7.26;100.00;69203.22;5082629;28;20047;-52
2024/03/29 02:56:02;;;;;;;2.80;0.82;;;;;;;7.26;100.00;69203.81;5065856;28;20096;-50
2024/03/29 02:58:29;;;;;;;4.55;1.08;;;;;;;7.30;100.00;69202.13;5066225;28;20072;-50
2024/03/29 03:00:56;;;;;;;4.57;1.05;;;;;;;7.23;100.00;69195.13;5048834;28;20044;-49
2024/03/29 03:03:26;;;;;;;2.42;0.85;;;;;;;7.26;100.00;69201.22;5068729;28;20042;-50
2024/03/29 03:05:54;;;;;;;3.95;0.80;;;;;;;7.26;100.00;69200.63;5065530;28;20106;-52
2024/03/29 03:11:08;;;;;;;4.07;0.80;;;;;;;7.20;100.00;69189.03;5070791;28;20041;-51
2024/03/29 03:13:37;;;;;;;3.70;0.85;;;;;;;7.21;100.00;69195.41;5087142;28;20041;-49
2024/03/29 03:16:05;;;;;;;3.95;1.00;;;;;;;7.29;100.00;69204.13;5069916;28;20060;-50
2024/03/29 03:18:31;;;;;;;4.68;0.85;;;;;;;7.21;100.00;69192.81;5072251;28;20419;-52
2024/03/29 03:20:58;;;;;;;4.25;0.90;;;;;;;7.31;100.00;69205.84;5085450;28;20037;-52
2024/03/29 03:23:27;;;;;;;3.42;0.90;;;;;;;7.29;100.00;69204.13;5069093;28;20048;-52
2024/03/29 03:25:57;;;;;;;7.45;1.33;;;;;;;7.33;100.00;69205.59;5069251;28;20117;-52
2024/03/29 03:28:24;;;;;;;2.47;0.77;;;;;;;7.34;100.00;69209.94;5069928;28;20093;-51
2024/03/29 03:30:53;;;;;;;7.75;1.02;;;;;;;7.35;100.00;69208.53;5089049;28;20047;-50
2024/03/29 03:33:20;;;;;;;3.95;0.90;;;;;;;7.36;100.00;69212.28;5069898;28;20045;-49
2024/03/29 03:35:47;;;;;;;4.53;1.15;;;;;;;7.39;100.00;69213.16;5052304;28;20049;-52
2024/03/29 03:38:15;;;;;;;4.20;1.00;;;;;;;7.47;100.00;69223.91;5068067;28;20033;-49
2024/03/29 03:40:41;;;;;;;5.80;1.17;;;;;;;7.50;100.00;69222.22;5088589;28;20045;-51
2024/03/29 03:43:09;;;;;;;4.63;1.10;;;;;;;7.53;100.00;69233.50;5069215;28;20098;-49
2024/03/29 03:45:36;;;;;;;4.00;0.90;;;;;;;7.57;100.00;69235.56;5087238;28;20045;-51
2024/03/29 03:48:05;;;;;;;3.17;0.80;;;;;;;7.60;100.00;69234.44;5087447;28;20049;-47
2024/03/29 03:50:31;;;;;;;3.92;1.00;;;;;;;7.64;100.00;69243.72;5069177;28;20048;-49
2024/03/29 03:52:59;;;;;;;3.55;1.55;;;;;;;7.64;100.00;69240.53;5084129;28;20059;-49
2024/03/29 03:55:25;;;;;;;4.00;1.10;;;;;;;7.65;100.00;69244.88;5068944;28;20055;-52
2024/03/29 03:57:54;;;;;;;2.95;0.80;;;;;;;7.68;100.00;69242.59;5085856;28;20496;-51
2024/03/29 04:00:21;;;;;;;4.78;0.98;;;;;;;7.63;100.00;69239.38;5069444;28;20135;-55
2024/03/29 04:02:49;;;;;;;4.75;1.00;;;;;;;7.60;100.00;69234.44;5085391;28;20041;-49
2024/03/29 04:05:18;;;;;;;1.92;0.82;;;;;;;7.59;100.00;69238.47;5068019;28;20102;-49
2024/03/29 04:07:45;;;;;;;5.72;0.82;;;;;;;7.55;100.00;69228.63;5051209;28;20061;-50
2024/03/29 04:10:12;;;;;;;3.42;0.70;;;;;;;7.49;100.00;69224.22;5068179;28;20520;-49
2024/03/29 04:12:42;;;;;;;3.50;0.80;;;;;;;7.37;100.00;69213.44;5085751;28;20041;-49
2024/03/29 04:15:08;;;;;;;2.85;0.70;;;;;;;7.27;100.00;69201.81;5069998;28;20052;-51
2024/03/29 04:17:36;;;;;;;4.65;0.82;;;;;;;7.20;100.00;69191.03;5069204;28;20113;-49
2024/03/29 04:20:03;;;;;;;2.72;0.57;;;;;;;7.16;100.00;69186.38;5067342;28;20052;-49
2024/03/29 04:22:31;;;;;;;4.72;0.75;;;;;;;7.13;100.00;69182.91;5067451;28;20051;-49
2024/03/29 04:24:58;;;;;;;3.08;0.70;;;;;;;7.05;100.00;69176.78;5084691;28;20047;-49
2024/03/29 04:27:26;;;;;;;3.20;0.75;;;;;;;7.04;100.00;69173.59;5085586;28;20048;-51
2024/03/29 04:29:54;;;;;;;1.48;0.70;;;;;;;7.04;100.00;69173.59;5085262;28;20056;-50
2024/03/29 04:32:23;;;;;;;3.40;0.70;;;;;;;7.03;100.00;69169.81;5068285;28;20086;-50
2024/03/29 04:34:50;;;;;;;3.20;0.52;;;;;;;7.02;100.00;69173.88;5087641;28;20445;-49
2024/03/29 04:37:17;;;;;;;2.67;0.70;;;;;;;6.99;100.00;69164.59;5083833;28;20048;-49
2024/03/29 04:39:47;;;;;;;4.72;0.93;;;;;;;6.96;100.00;69164.28;5085339;28;20033;-52
2024/03/29 04:42:14;;;;;;;2.00;0.65;;;;;;;6.92;100.00;69157.03;5069677;28;20059;-49
2024/03/29 04:44:42;;;;;;;4.22;0.65;;;;;;;6.93;100.00;69160.78;5068079;28;20479;-50
2024/03/29 04:47:09;;;;;;;3.65;0.88;;;;;;;6.94;100.00;69159.38;5084536;28;20048;-50
2024/03/29 04:49:37;;;;;;;2.33;0.80;;;;;;;6.88;100.00;69158.13;5068067;28;20156;-51
2024/03/29 04:52:05;;;;;;;3.83;0.73;;;;;;;6.87;100.00;69151.22;5069263;28;20048;-50
2024/03/29 04:54:32;;;;;;;3.33;1.10;;;;;;;6.88;100.00;69157.56;5050574;28;20464;-51
2024/03/29 04:57:03;;;;;;;3.70;1.05;;;;;;;6.80;100.00;69146.25;5084412;28;20056;-50
2024/03/29 04:59:30;;;;;;;2.40;0.90;;;;;;;6.80;100.00;69145.66;5068250;28;20076;-49
2024/03/29 05:01:57;;;;;;;3.42;0.90;;;;;;;6.77;100.00;69140.16;5069754;28;20048;-51
2024/03/29 05:04:26;;;;;;;4.35;1.50;;;;;;;6.79;100.00;69144.50;5050539;28;20391;-49
2024/03/29 05:06:54;;;;;;;5.05;1.20;;;;;;;6.76;100.00;69142.19;5066624;28;20037;-50
2024/03/29 05:09:20;;;;;;;4.95;1.10;;;;;;;6.72;100.00;69139.53;5067045;28;20040;-52
2024/03/29 05:11:48;;;;;;;5.43;1.80;;;;;;;6.73;100.00;69138.09;5084480;28;20082;-49
2024/03/29 05:14:18;;;;;;;4.93;0.95;;;;;;;6.76;100.00;69141.59;5084381;28;20055;-49
2024/03/29 05:16:45;;;;;;;4.55;1.40;;;;;;;6.66;100.00;69132.56;5067735;28;20048;-51
2024/03/29 05:19:13;;;;;;;2.75;0.95;;;;;;;6.64;100.00;69127.63;5070307;28;20051;-49
2024/03/29 05:21:40;;;;;;;4.78;0.93;;;;;;;6.57;100.00;69120.66;5087305;28;20511;-49
2024/03/29 05:24:07;;;;;;;4.90;1.35;;;;;;;6.60;100.00;69121.53;5068091;28;20060;-49
2024/03/29 05:26:35;;;;;;;6.28;1.45;;;;;;;6.58;100.00;69124.41;5067289;28;20131;-53
2024/03/29 05:29:04;;;;;;;5.50;1.20;;;;;;;6.55;100.00;69118.31;5069544;28;20036;-50
2024/03/29 05:31:32;;;;;;;5.20;1.60;;;;;;;6.52;100.00;69114.25;5066602;28;20119;-52
2024/03/29 05:34:01;;;;;;;5.53;1.70;;;;;;;6.53;100.00;69113.41;5066912;28;20365;-53
2024/03/29 05:36:28;;;;;;;4.05;1.20;;;;;;;6.52;100.00;69116.84;5068696;28;20051;-51
2024/03/29 05:38:55;;;;;;;3.47;1.08;;;;;;;6.52;100.00;69116.84;5067476;28;20496;-49
2024/03/29 05:41:25;;;;;;;4.40;1.70;;;;;;;6.53;100.00;69113.41;5067339;28;20058;-50
2024/03/29 05:43:52;;;;;;;5.28;1.50;;;;;;;6.56;100.00;69124.66;5066858;28;20068;-50
2024/03/29 05:46:19;;;;;;;4.47;1.35;;;;;;;6.52;100.00;69112.25;5083347;28;20143;-50
2024/03/29 05:48:48;;;;;;;2.67;1.00;;;;;;;6.47;100.00;69103.81;5065822;28;20049;-48
2024/03/29 05:51:15;;;;;;;5.15;1.00;;;;;;;6.48;100.00;69107.59;5065953;28;20499;-48
2024/03/29 05:53:42;;;;;;;2.78;0.85;;;;;;;6.50;100.00;69115.09;5066110;28;20055;-48
2024/03/29 05:56:09;;;;;;;3.38;1.00;;;;;;;6.47;100.00;69113.63;5083500;28;20384;-49
2024/03/29 05:58:36;;;;;;;2.08;0.90;;;;;;;6.48;100.00;69107.00;5067172;28;20049;-49
2024/03/29 06:01:03;;;;;;;1.77;0.90;;;;;;;6.51;100.00;69113.66;5051111;28;20059;-47
2024/03/29 06:03:31;;;;;;;4.65;1.10;;;;;;;6.48;100.00;69109.59;5085022;28;20151;-48
2024/03/29 06:05:59;;;;;;;2.78;1.00;;;;;;;6.46;100.00;69107.84;5065684;28;20036;-49
2024/03/29 06:08:27;;;;;;;2.72;0.98;;;;;;;6.47;100.00;69111.59;5066311;28;20492;-49
2024/03/29 06:10:54;;;;;;;1.80;1.10;;;;;;;6.49;100.00;69111.34;5065924;28;20502;-51
2024/03/29 06:18:56;;;;;;;3.72;0.90;;;;;;;6.49;100.00;69116.53;5069105;28;20052;-49
2024/03/29 06:21:25;;;;;;;2.22;0.90;;;;;;;6.52;100.00;69114.84;5066501;28;20056;-49
2024/03/29 06:23:52;;;;;;;4.95;1.10;;;;;;;6.49;100.00;69113.94;5065011;28;20041;-49
2024/03/29 06:26:20;;;;;;;5.97;1.02;;;;;;;6.51;100.00;69111.06;5083123;28;20040;-50
2024/03/29 06:28:50;;;;;;;1.80;0.80;;;;;;;6.54;100.00;69113.97;5084886;28;20399;-50
2024/03/29 06:31:20;;;;;;;3.03;1.40;;;;;;;6.53;100.00;69118.59;5067127;28;20060;-50
2024/03/29 06:33:47;;;;;;;2.97;1.10;;;;;;;6.60;100.00;69124.13;5066107;28;20079;-48
2024/03/29 06:36:14;;;;;;;4.00;1.15;;;;;;;6.59;100.00;69125.56;5069395;28;20036;-50
2024/03/29 06:38:42;;;;;;;5.40;1.23;;;;;;;6.60;100.00;69126.72;5067889;28;20044;-52
2024/03/29 06:41:09;;;;;;;7.82;1.50;;;;;;;6.64;100.00;69127.63;5083154;28;20045;-49
2024/03/29 06:43:36;;;;;;;3.05;1.23;;;;;;;6.63;100.00;69126.47;5069706;28;20102;-48
2024/03/29 06:46:04;;;;;;;4.03;1.40;;;;;;;6.64;100.00;69125.03;5053210;28;20052;-50
2024/03/29 06:48:32;;;;;;;3.25;1.30;;;;;;;6.61;100.00;69124.72;5070333;28;20045;-52
2024/03/29 06:50:59;;;;;;;6.10;1.60;;;;;;;6.53;100.00;69118.59;5070253;28;20040;-48
2024/03/29 06:53:26;;;;;;;4.72;1.90;;;;;;;6.57;100.00;69117.47;5073088;28;20450;-49
2024/03/29 06:55:55;;;;;;;4.55;1.73;;;;;;;6.60;100.00;69120.97;5087807;28;20033;-49
2024/03/29 06:58:22;;;;;;;4.38;1.70;;;;;;;6.61;100.00;69127.31;5068941;28;20181;-52
2024/03/29 07:00:50;;;;;;;5.18;1.55;;;;;;;6.56;100.00;69119.47;5072847;28;20475;-50
2024/03/29 07:03:18;;;;;;;4.50;1.80;;;;;;;6.60;100.00;69120.97;5089849;28;20048;-52
2024/03/29 07:05:45;;;;;;;5.15;1.80;;;;;;;6.63;100.00;69129.06;5072911;28;20044;-51
2024/03/29 07:08:12;;;;;;;4.10;1.73;;;;;;;6.58;100.00;69118.63;5073048;28;20036;-50
2024/03/29 07:10:42;;;;;;;5.15;2.05;;;;;;;6.62;100.00;69127.91;5089486;28;20043;-55
2024/03/29 07:13:11;;;;;;;4.65;1.95;;;;;;;6.65;100.00;69128.78;5089826;28;20098;-49
2024/03/29 07:15:38;;;;;;;5.32;2.00;;;;;;;6.64;100.00;69130.81;5086397;28;20514;-48
2024/03/29 07:18:06;;;;;;;5.68;2.20;;;;;;;6.67;100.00;69131.13;5069795;28;20398;-49
2024/03/29 07:20:33;;;;;;;5.93;2.70;;;;;;;6.66;100.00;69129.97;5071354;28;20519;-50
2024/03/29 07:23:00;;;;;;;8.10;2.63;;;;;;;6.74;100.00;69139.28;5068507;28;20041;-51
2024/03/29 07:25:27;;;;;;;7.32;2.47;;;;;;;6.73;100.00;69138.66;5069269;28;20041;-51
2024/03/29 07:27:54;;;;;;;5.68;2.20;;;;;;;6.77;100.00;69142.75;5086488;28;20098;-50
2024/03/29 07:30:23;;;;;;;5.75;2.40;;;;;;;6.80;100.00;69148.25;5086918;28;20048;-49
2024/03/29 07:32:50;;;;;;;6.60;2.72;;;;;;;6.78;100.00;69143.91;5052572;28;20824;-50
2024/03/29 07:35:18;;;;;;;5.70;2.10;;;;;;;6.80;100.00;69146.25;5068922;28;20056;-52
2024/03/29 07:37:47;;;;;;;4.20;1.92;;;;;;;6.87;100.00;69151.81;5068484;28;20056;-48
2024/03/29 07:40:14;;;;;;;6.57;2.30;;;;;;;6.86;100.00;69150.63;5068698;28;20048;-52
2024/03/29 07:42:42;;;;;;;4.57;1.92;;;;;;;6.93;100.00;69163.38;5086226;28;20399;-49
2024/03/29 07:45:10;;;;;;;6.72;2.20;;;;;;;6.97;100.00;69168.03;5069287;28;20048;-51
2024/03/29 07:47:38;;;;;;;5.95;1.70;;;;;;;6.98;100.00;69168.63;5070589;28;20037;-49
2024/03/29 07:50:06;;;;;;;4.13;1.67;;;;;;;6.99;100.00;69167.19;5069947;28;20041;-52
2024/03/29 07:52:33;;;;;;;5.63;1.67;;;;;;;7.01;100.00;69172.09;5067957;28;20052;-49
2024/03/29 07:55:00;;;;;;;4.20;1.85;;;;;;;7.04;100.00;69175.63;5071123;28;20061;-51
2024/03/29 07:57:28;;;;;;;4.47;1.75;;;;;;;7.07;100.00;69176.50;5072216;28;20051;-47
2024/03/29 07:59:55;;;;;;;4.75;2.00;;;;;;;7.10;100.00;69177.41;5089167;28;20037;-46
2024/03/29 08:02:22;;;;;;;3.03;1.67;;;;;;;7.13;100.00;69177.72;5055348;28;20084;-47
2024/03/29 08:04:53;;;;;;;5.70;2.13;;;;;;;7.14;100.00;69182.06;5053538;28;20450;-47
2024/03/29 08:07:20;;;;;;;5.80;2.15;;;;;;;7.14;100.00;69182.06;5068253;28;20563;-47
2024/03/29 08:09:47;;;;;;;5.88;1.90;;;;;;;7.14;100.00;69187.25;5067928;28;20040;-46
2024/03/29 08:12:15;;;;;;;4.72;2.05;;;;;;;7.15;100.00;69182.66;5068749;28;20595;-46
2024/03/29 08:14:42;;;;;;;3.63;1.70;;;;;;;7.12;100.00;69179.72;5068777;28;20519;-47
2024/03/29 08:17:09;;;;;;;5.35;1.92;;;;;;;7.10;100.00;69183.19;5068344;28;20447;-47
2024/03/29 08:19:36;;;;;;;5.50;1.83;;;;;;;7.12;100.00;69184.91;5085840;28;20088;-48
2024/03/29 08:22:05;;;;;;;3.65;1.75;;;;;;;7.13;100.00;69180.91;5067093;28;20036;-47
2024/03/29 08:24:35;;;;;;;4.28;1.75;;;;;;;7.18;100.00;69189.31;5068450;28;20052;-46
2024/03/29 08:27:02;;;;;;;7.30;2.10;;;;;;;7.21;100.00;69192.22;5071405;28;20048;-47
2024/03/29 08:29:29;;;;;;;3.80;1.95;;;;;;;7.24;100.00;69198.28;5088335;28;20040;-47
2024/03/29 08:31:56;;;;;;;6.53;2.20;;;;;;;7.27;100.00;69202.38;5068633;28;20040;-49
2024/03/29 08:34:24;;;;;;;5.18;2.20;;;;;;;7.32;100.00;69199.84;5085583;28;20049;-47
2024/03/29 08:36:51;;;;;;;6.30;1.92;;;;;;;7.37;100.00;69213.44;5070480;28;20139;-46
2024/03/29 08:39:20;;;;;;;4.53;1.80;;;;;;;7.43;100.00;69217.22;5067028;28;20045;-49
2024/03/29 08:41:47;;;;;;;6.30;2.17;;;;;;;7.45;100.00;69222.75;5069479;28;20052;-47
2024/03/29 08:44:14;;;;;;;5.50;2.10;;;;;;;7.45;100.00;69220.16;5071064;28;20060;-48
2024/03/29 08:46:41;;;;;;;5.88;2.10;;;;;;;7.52;100.00;69227.72;5071158;28;20032;-46
2024/03/29 08:49:08;;;;;;;5.80;2.03;;;;;;;7.57;100.00;69238.16;5070902;28;20052;-47
2024/03/29 08:51:35;;;;;;;6.75;2.10;;;;;;;7.64;100.00;69243.13;5070830;28;20063;-46
2024/03/29 08:54:04;;;;;;;6.35;1.88;;;;;;;7.70;100.00;69247.50;5068966;28;20412;-47
2024/03/29 08:56:36;;;;;;;4.70;2.25;;;;;;;7.76;100.00;69260.28;5068297;28;20396;-50
2024/03/29 08:59:07;;;;;;;5.53;2.33;;;;;;;7.92;100.00;69272.53;5051073;28;20052;-50
2024/03/29 09:01:35;;;;;;;4.95;2.33;;;;;;;8.08;100.00;69291.19;5067338;28;20139;-46
2024/03/29 09:04:03;;;;;;;8.48;3.30;;;;;;;8.25;100.00;69310.41;5067775;28;20416;-47
2024/03/29 09:06:30;;;;;;;5.40;2.40;;;;;;;8.40;100.00;69324.72;5069688;28;20503;-46
2024/03/29 09:08:57;;;;;;;4.75;2.03;;;;;;;8.46;100.00;69336.91;5087534;28;20059;-49
2024/03/29 09:11:24;;;;;;;7.07;2.47;;;;;;;8.63;100.00;69356.16;5085739;28;20072;-48
2024/03/29 09:13:53;;;;;;;5.97;2.30;;;;;;;8.75;100.00;69366.34;5084855;28;20036;-48
2024/03/29 09:16:20;;;;;;;4.88;2.03;;;;;;;8.75;100.00;69363.75;5087020;28;20063;-46
2024/03/29 09:18:51;;;;;;;4.78;1.88;;;;;;;8.80;100.00;69372.78;5053762;28;20052;-47
2024/03/29 09:21:19;;;;;;;8.50;2.58;;;;;;;8.92;100.00;69386.19;5070408;28;20395;-45
2024/03/29 09:23:48;;;;;;;5.55;2.20;;;;;;;9.05;100.00;69400.75;5070739;28;20037;-49
2024/03/29 09:26:15;;;;;;;5.32;2.05;;;;;;;9.20;100.00;69417.06;5085007;28;20051;-49
2024/03/29 09:28:42;;;;;;;5.55;1.88;;;;;;;9.30;100.00;69428.75;5050345;28;20206;-46
2024/03/29 09:31:11;;;;;;;5.63;1.60;;;;;;;9.38;100.00;69438.06;5068715;28;20044;-48
2024/03/29 09:33:38;;;;;;;4.90;1.50;;;;;;;9.53;100.00;69457.59;5050568;28;20056;-46
2024/03/29 09:36:06;;;;;;;5.55;1.90;;;;;;;9.67;100.00;69467.50;5066046;28;20557;-46
2024/03/29 09:38:33;;;;;;;7.72;1.80;;;;;;;9.93;100.00;69503.06;5068227;28;20783;-47
2024/03/29 09:41:08;;;;;;;4.43;2.08;;;;;;;10.14;100.00;69524.38;5070031;28;20040;-48
2024/03/29 09:43:35;;;;;;;2.72;1.38;;;;;;;10.29;100.00;69538.69;5084593;28;20051;-48
2024/03/29 09:46:04;;;;;;;5.55;1.65;;;;;;;10.55;100.00;69570.50;5083332;28;20052;-48
2024/03/29 09:48:36;;;;;;;4.72;1.40;;;;;;;10.70;100.00;69586.84;5066916;28;20040;-47
2024/03/29 09:51:05;;;;;;;5.00;1.40;;;;;;;10.77;100.00;69595.59;5066267;28;20049;-49
2024/03/29 09:53:35;;;;;;;3.92;1.45;;;;;;;11.01;100.00;69622.44;5066149;28;20113;-48
2024/03/29 09:56:04;;;;;;;6.05;1.63;;;;;;;11.23;100.00;69641.72;5066641;28;20528;-48
2024/03/29 09:58:32;;;;;;;3.83;1.20;;;;;;;11.46;100.00;69668.59;5067196;28;20045;-49
2024/03/29 10:00:59;;;;;;;4.10;1.50;;;;;;;11.55;100.00;69683.75;5066789;28;20052;-47
2024/03/29 10:03:29;;;;;;;4.70;1.40;;;;;;;11.59;100.00;69687.81;5083726;28;20041;-49
2024/03/29 10:05:59;;;;;;;3.95;1.60;;;;;;;11.76;100.00;69707.13;5049304;28;20044;-47
2024/03/29 10:08:27;;;;;;;3.58;1.52;;;;;;;11.80;100.00;69706.56;5066192;28;20036;-47
2024/03/29 10:10:55;;;;;;;5.18;1.80;;;;;;;11.91;100.00;69724.63;5066829;28;20049;-49
2024/03/29 10:13:26;;;;;;;3.53;1.40;;;;;;;11.77;100.00;69705.66;5067308;28;20110;-48
2024/03/29 10:15:55;;;;;;;3.15;1.35;;;;;;;11.66;100.00;69691.38;5067024;28;20037;-47
2024/03/29 10:18:23;;;;;;;6.30;1.50;;;;;;;11.75;100.00;69703.31;5069877;28;20051;-48
2024/03/29 10:21:02;;;;;;;5.85;2.25;;;;;;;11.95;100.00;69723.53;5086801;28;20095;-47
2024/03/29 10:23:30;;;;;;;5.38;1.70;;;;;;;12.06;100.00;69733.16;5070309;28;20600;-48
2024/03/29 10:25:58;;;;;;;3.58;1.27;;;;;;;11.92;100.00;69723.19;5069996;28;20044;-49
2024/03/29 10:28:33;;;;;;;3.35;1.42;;;;;;;12.02;100.00;69731.13;5071039;28;20784;-47
2024/03/29 10:31:00;;;;;;;4.28;1.40;;;;;;;11.97;100.00;69734.28;5070475;28;20439;-48
2024/03/29 10:33:30;;;;;;;5.25;1.50;;;;;;;12.16;100.00;69755.31;5070774;28;20577;-49
2024/03/29 10:35:58;;;;;;;3.55;1.58;;;;;;;12.27;100.00;69765.56;5054175;28;20044;-51
2024/03/29 10:38:27;;;;;;;3.85;1.50;;;;;;;12.47;100.00;69782.53;5072454;28;20462;-52
2024/03/29 10:40:58;;;;;;;4.28;1.40;;;;;;;12.59;100.00;69796.56;5086858;28;20043;-51
2024/03/29 10:43:26;;;;;;;3.33;1.50;;;;;;;12.75;100.00;69817.28;5087399;28;20514;-47
2024/03/29 10:45:59;;;;;;;3.85;1.33;;;;;;;12.80;100.00;69819.94;5053541;28;20796;-45
2024/03/29 10:48:27;;;;;;;3.83;1.30;;;;;;;12.83;100.00;69826.06;5073351;28;20036;-47
2024/03/29 10:50:57;;;;;;;4.05;1.50;;;;;;;12.93;100.00;69837.75;5087960;28;20032;-48
2024/03/29 10:53:26;;;;;;;2.97;1.40;;;;;;;13.09;100.00;69852.66;5086393;28;20065;-48
2024/03/29 10:55:58;;;;;;;2.78;1.30;;;;;;;13.30;100.00;69882.47;5086600;28;20036;-48
2024/03/29 10:58:30;;;;;;;5.18;1.67;;;;;;;13.45;100.00;69896.81;5087184;28;20055;-48
2024/03/29 11:00:58;;;;;;;3.55;1.63;;;;;;;13.57;100.00;69910.28;5069801;28;20089;-47
2024/03/29 11:03:33;;;;;;;3.88;1.42;;;;;;;13.74;100.00;69934.25;5070007;28;20400;-48
2024/03/29 11:06:04;;;;;;;3.88;1.50;;;;;;;13.81;100.00;69934.56;5069002;28;20408;-48
2024/03/29 11:08:34;;;;;;;2.83;1.40;;;;;;;14.06;100.00;69963.25;5072725;28;20041;-47
2024/03/29 11:11:05;;;;;;;3.38;1.58;;;;;;;14.22;100.00;69986.03;5052479;28;20048;-48
2024/03/29 11:13:41;;;;;;;3.33;1.70;;;;;;;14.41;100.00;70007.69;5070082;28;20051;-46
2024/03/29 11:16:12;;;;;;;3.38;1.30;;;;;;;14.76;100.00;70042.28;5069950;28;20090;-47
2024/03/29 11:18:40;;;;;;;4.75;1.52;;;;;;;14.87;100.00;70058.38;5069897;28;20464;-47
2024/03/29 11:21:09;;;;;;;3.10;1.27;;;;;;;14.99;100.00;70069.19;5069136;28;20048;-48
2024/03/29 11:23:37;;;;;;;3.95;1.40;;;;;;;14.80;100.00;70049.59;5085867;28;20052;-50
2024/03/29 11:26:06;;;;;;;3.30;1.40;;;;;;;14.69;100.00;70037.88;5052483;28;20439;-48
2024/03/29 11:28:35;;;;;;;2.53;1.20;;;;;;;14.73;100.00;70039.34;5086219;28;20060;-47
2024/03/29 11:31:04;;;;;;;3.25;1.40;;;;;;;14.72;100.00;70037.59;5068720;28;20089;-50
2024/03/29 11:33:33;;;;;;;2.40;1.20;;;;;;;14.74;100.00;70045.19;5069809;28;20040;-48
2024/03/29 11:36:01;;;;;;;3.30;1.10;;;;;;;14.82;100.00;70051.91;5072200;28;20098;-48
2024/03/29 11:38:36;;;;;;;3.78;1.20;;;;;;;14.60;100.00;70029.34;5072543;28;20033;-51
2024/03/29 11:41:08;;;;;;;2.45;1.10;;;;;;;14.70;100.00;70036.41;5072537;28;20498;-48
2024/03/29 11:43:36;;;;;;;;;;;;;;;14.67;100.00;70035.53;5088301;28;20056;-48
2024/03/29 11:46:07;;;;;;;2.88;1.13;;;;;;;14.68;100.00;70030.84;5085256;28;20383;-50
2024/03/29 11:48:35;;;;;;;3.72;1.25;;;;;;;14.84;100.00;70049.59;5072107;28;20048;-47
2024/03/29 11:51:04;;;;;;;3.75;1.20;;;;;;;14.88;100.00;70062.16;5084950;28;20033;-53
2024/03/29 11:53:32;;;;;;;6.00;1.30;;;;;;;14.74;100.00;70043.16;5068479;28;20502;-54
2024/03/29 11:55:59;;;;;;;3.78;1.10;;;;;;;14.78;100.00;70044.59;5085551;28;20044;-54
2024/03/29 11:58:29;;;;;;;4.60;1.17;;;;;;;14.97;100.00;70069.50;5071838;28;20041;-55
2024/03/29 12:00:57;;;;;;;2.03;1.00;;;;;;;14.76;100.00;70042.84;5068521;28;20040;-55
2024/03/29 12:03:26;;;;;;;2.58;1.00;;;;;;;14.71;100.00;70042.25;5085586;28;20040;-55
2024/03/29 12:05:58;;;;;;;4.35;0.77;;;;;;;15.04;100.00;70077.69;5085738;28;20045;-55
2024/03/29 12:08:26;;;;;;;1.90;0.88;;;;;;;15.28;100.00;70104.03;5070416;28;20538;-54
2024/03/29 12:10:53;;;;;;;1.52;0.65;;;;;;;15.60;100.00;70140.94;5072264;28;20041;-55
2024/03/29 12:13:21;;;;;;;2.38;1.00;;;;;;;15.78;100.00;70158.81;5089079;28;20040;-56
2024/03/29 12:15:49;;;;;;;1.83;0.70;;;;;;;15.65;100.00;70149.44;5072047;28;20083;-54
2024/03/29 12:18:21;;;;;;;3.13;0.90;;;;;;;15.56;100.00;70138.88;5072071;28;20036;-56
2024/03/29 12:20:50;;;;;;;3.33;0.90;;;;;;;15.90;100.00;70174.94;5054921;28;20052;-56
2024/03/29 12:23:18;;;;;;;2.95;0.90;;;;;;;15.96;100.00;70184.59;5071625;28;20391;-52
2024/03/29 12:25:46;;;;;;;1.38;0.63;;;;;;;16.10;100.00;70197.22;5071699;28;20055;-54
2024/03/29 12:28:14;;;;;;;1.52;0.70;;;;;;;16.29;100.00;70219.50;5071724;28;20041;-54
2024/03/29 12:30:43;;;;;;;1.30;0.70;;;;;;;16.26;100.00;70212.75;5070379;28;20055;-55
2024/03/29 12:33:14;;;;;;;1.13;0.63;;;;;;;15.90;100.00;70177.56;5068101;28;20049;-54
2024/03/29 12:35:43;;;;;;;1.43;0.77;;;;;;;16.33;100.00;70224.19;5070509;28;20047;-54
2024/03/29 12:38:12;;;;;;;1.27;0.70;;;;;;;16.72;100.00;70268.72;5068095;28;20036;-56
2024/03/29 12:40:40;;;;;;;0.90;0.55;;;;;;;16.91;100.00;70289.84;5085176;28;20040;-55
2024/03/29 12:43:11;;;;;;;1.30;0.80;;;;;;;17.15;100.00;70316.81;5068292;28;20067;-53
2024/03/29 12:45:40;;;;;;;3.38;0.70;;;;;;;17.37;100.00;70340.00;5068687;28;20032;-49
2024/03/29 12:48:13;;;;;;;2.92;0.82;;;;;;;17.21;95.62;70324.44;5084395;28;20047;-51
2024/03/29 12:50:42;;;;;;;3.40;0.80;;;;;;;17.41;94.62;70346.75;5084639;28;20032;-49
2024/03/29 12:53:12;;;;;;;1.27;0.63;;;;;;;17.17;94.97;70321.81;5086549;28;20049;-47
2024/03/29 12:55:44;;;;;;;2.58;0.63;;;;;;;17.39;98.82;70344.38;5070089;28;20047;-55
2024/03/29 12:58:11;;;;;;;2.05;0.63;;;;;;;17.54;96.50;70364.03;5090556;28;20044;-52
2024/03/29 13:00:38;;;;;;;1.80;0.80;;;;;;;17.49;97.07;70358.78;5074081;28;20036;-52
2024/03/29 13:03:06;;;;;;;1.38;0.70;;;;;;;17.27;93.03;70330.31;5087538;28;20082;-49
2024/03/29 13:05:39;;;;;;;3.83;0.80;;;;;;;17.05;89.88;70308.91;5086301;28;20036;-54
2024/03/29 13:08:10;;;;;;;1.65;0.50;;;;;;;17.14;89.25;70313.00;5085298;28;20048;-55
2024/03/29 13:10:40;;;;;;;1.08;0.90;;;;;;;17.30;88.92;70328.56;5086900;28;20544;-54
2024/03/29 13:13:08;;;;;;;1.27;0.50;;;;;;;17.44;88.52;70347.03;5087342;28;20055;-55
2024/03/29 13:15:37;;;;;;;0.85;0.57;;;;;;;17.09;88.96;70310.38;5087597;28;20040;-55
2024/03/29 13:18:05;;;;;;;1.38;0.50;;;;;;;17.39;90.73;70344.38;5086676;28;20047;-55
2024/03/29 13:20:40;;;;;;;2.13;0.70;;;;;;;17.46;88.39;70349.38;5087652;28;20044;-50
2024/03/29 13:23:08;;;;;;;2.65;0.82;;;;;;;17.29;89.28;70337.94;5086809;28;20510;-55
2024/03/29 13:25:35;;;;;;;2.10;0.70;;;;;;;17.54;88.60;70358.75;5088865;28;20036;-54
2024/03/29 13:28:02;;;;;;;1.85;0.60;;;;;;;17.09;89.66;70310.38;5084351;28;20039;-56